sensor_id;sensor_type;location;lat;lon;timestamp;pressure;altitude;pressure_sealevel;temperature;humidity
11678;BME280;5895;41.950;24.372;2023-03-26T00:00:48;86176.59;;;6.76;70.39
11678;BME280;5895;41.950;24.372;2023-03-26T00:03:19;86183.19;;;6.72;69.96
11678;BME280;5895;41.950;24.372;2023-03-26T00:05:47;86178.91;;;6.66;70.44
11678;BME280;5895;41.950;24.372;2023-03-26T00:08:15;86190.09;;;6.60;70.19
11678;BME280;5895;41.950;24.372;2023-03-26T00:10:42;86189.75;;;6.56;70.34
11678;BME280;5895;41.950;24.372;2023-03-26T00:13:10;86190.44;;;6.52;70.49
11678;BME280;5895;41.950;24.372;2023-03-26T00:15:38;86192.78;;;6.53;70.40
11678;BME280;5895;41.950;24.372;2023-03-26T00:18:06;86199.72;;;6.53;70.09
11678;BME280;5895;41.950;24.372;2023-03-26T00:20:33;86206.09;;;6.50;71.30
11678;BME280;5895;41.950;24.372;2023-03-26T00:23:00;86211.03;;;6.52;70.61
11678;BME280;5895;41.950;24.372;2023-03-26T00:25:28;86196.38;;;6.52;70.59
11678;BME280;5895;41.950;24.372;2023-03-26T00:27:57;86207.88;;;6.50;70.41
11678;BME280;5895;41.950;24.372;2023-03-26T00:30:25;86199.03;;;6.46;70.76
11678;BME280;5895;41.950;24.372;2023-03-26T00:35:34;86199.09;;;6.39;71.50
11678;BME280;5895;41.950;24.372;2023-03-26T00:38:02;86199.09;;;6.39;71.28
11678;BME280;5895;41.950;24.372;2023-03-26T00:40:29;86199.88;;;6.40;71.04
11678;BME280;5895;41.950;24.372;2023-03-26T00:42:56;86194.94;;;6.38;71.58
11678;BME280;5895;41.950;24.372;2023-03-26T00:45:24;86203.47;;;6.39;71.48
11678;BME280;5895;41.950;24.372;2023-03-26T00:47:51;86199.88;;;6.40;72.37
11678;BME280;5895;41.950;24.372;2023-03-26T00:50:18;86203.81;;;6.42;72.33
11678;BME280;5895;41.950;24.372;2023-03-26T00:52:47;86198.44;;;6.44;74.10
11678;BME280;5895;41.950;24.372;2023-03-26T00:55:14;86191.41;;;6.51;74.46
11678;BME280;5895;41.950;24.372;2023-03-26T00:57:42;86205.84;;;6.70;75.01
11678;BME280;5895;41.950;24.372;2023-03-26T01:00:14;86196.03;;;6.91;75.26
11678;BME280;5895;41.950;24.372;2023-03-26T01:02:42;86201.75;;;7.04;74.00
11678;BME280;5895;41.950;24.372;2023-03-26T01:05:39;86187.22;;;7.22;81.65
11678;BME280;5895;41.950;24.372;2023-03-26T01:08:17;86187.09;;;7.28;77.61
11678;BME280;5895;41.950;24.372;2023-03-26T01:10:45;86200.69;;;7.35;74.35
11678;BME280;5895;41.950;24.372;2023-03-26T01:13:16;86197.78;;;7.43;74.13
11678;BME280;5895;41.950;24.372;2023-03-26T01:15:44;86192.72;;;7.49;74.39
11678;BME280;5895;41.950;24.372;2023-03-26T01:18:17;86201.38;;;7.54;76.00
11678;BME280;5895;41.950;24.372;2023-03-26T01:20:47;86198.13;;;7.59;77.20
11678;BME280;5895;41.950;24.372;2023-03-26T01:23:21;86211.16;;;7.64;78.79
11678;BME280;5895;41.950;24.372;2023-03-26T01:26:06;86199.91;;;7.70;78.98
11678;BME280;5895;41.950;24.372;2023-03-26T01:28:37;86211.25;;;7.69;77.32
11678;BME280;5895;41.950;24.372;2023-03-26T01:31:09;86205.63;;;7.72;79.31
11678;BME280;5895;41.950;24.372;2023-03-26T01:33:43;86207.06;;;7.68;81.09
11678;BME280;5895;41.950;24.372;2023-03-26T01:36:17;86213.25;;;7.67;79.65
11678;BME280;5895;41.950;24.372;2023-03-26T01:38:52;86205.50;;;7.67;79.35
11678;BME280;5895;41.950;24.372;2023-03-26T01:41:31;86207.06;;;7.68;81.01
11678;BME280;5895;41.950;24.372;2023-03-26T01:44:05;86222.81;;;7.66;79.54
11678;BME280;5895;41.950;24.372;2023-03-26T01:46:36;86207.06;;;7.68;78.45
11678;BME280;5895;41.950;24.372;2023-03-26T01:49:04;86217.41;;;7.68;78.68
11678;BME280;5895;41.950;24.372;2023-03-26T01:51:38;86212.38;;;7.61;78.77
11678;BME280;5895;41.950;24.372;2023-03-26T01:54:07;86217.19;;;7.58;78.27
11678;BME280;5895;41.950;24.372;2023-03-26T01:56:45;86220.34;;;7.60;79.67
11678;BME280;5895;41.950;24.372;2023-03-26T01:59:27;86222.38;;;7.58;80.08
11678;BME280;5895;41.950;24.372;2023-03-26T02:01:59;86213.72;;;7.52;77.43
11678;BME280;5895;41.950;24.372;2023-03-26T02:04:37;86219.31;;;7.49;78.23
11678;BME280;5895;41.950;24.372;2023-03-26T02:07:10;86211.81;;;7.48;77.46
11678;BME280;5895;41.950;24.372;2023-03-26T02:09:44;86213.81;;;7.46;78.43
11678;BME280;5895;41.950;24.372;2023-03-26T02:12:16;86210.25;;;7.47;77.13
11678;BME280;5895;41.950;24.372;2023-03-26T02:14:45;86212.25;;;7.45;75.56
11678;BME280;5895;41.950;24.372;2023-03-26T02:17:12;86206.53;;;7.42;76.21
11678;BME280;5895;41.950;24.372;2023-03-26T02:19:41;86212.91;;;7.40;76.21
11678;BME280;5895;41.950;24.372;2023-03-26T02:22:10;86209.34;;;7.41;75.27
11678;BME280;5895;41.950;24.372;2023-03-26T02:24:40;86203.59;;;7.39;76.74
11678;BME280;5895;41.950;24.372;2023-03-26T02:27:08;86206.41;;;7.37;75.88
11678;BME280;5895;41.950;24.372;2023-03-26T02:29:39;86204.72;;;7.31;76.73
11678;BME280;5895;41.950;24.372;2023-03-26T02:32:08;86203.72;;;7.32;75.44
11678;BME280;5895;41.950;24.372;2023-03-26T02:34:38;86193.38;;;7.32;74.86
11678;BME280;5895;41.950;24.372;2023-03-26T02:37:05;86195.19;;;7.32;74.44
11678;BME280;5895;41.950;24.372;2023-03-26T02:39:33;86200.56;;;7.30;74.51
11678;BME280;5895;41.950;24.372;2023-03-26T02:42:00;86206.53;;;7.31;75.13
11678;BME280;5895;41.950;24.372;2023-03-26T02:44:28;86201.38;;;7.31;74.20
11678;BME280;5895;41.950;24.372;2023-03-26T02:46:57;86210.91;;;7.30;74.97
11678;BME280;5895;41.950;24.372;2023-03-26T02:49:24;86216.50;;;7.27;74.31
11678;BME280;5895;41.950;24.372;2023-03-26T02:51:51;86214.03;;;7.21;75.10
11678;BME280;5895;41.950;24.372;2023-03-26T02:54:21;86215.81;;;7.20;74.83
11678;BME280;5895;41.950;24.372;2023-03-26T02:56:48;86220.84;;;7.15;75.12
11678;BME280;5895;41.950;24.372;2023-03-26T02:59:16;86222.28;;;7.11;75.71
11678;BME280;5895;41.950;24.372;2023-03-26T03:01:43;86229.47;;;7.09;75.69
11678;BME280;5895;41.950;24.372;2023-03-26T03:04:12;86220.72;;;7.10;76.23
11678;BME280;5895;41.950;24.372;2023-03-26T03:06:39;86225.88;;;7.10;75.71
11678;BME280;5895;41.950;24.372;2023-03-26T03:09:07;86217.91;;;7.11;75.14
11678;BME280;5895;41.950;24.372;2023-03-26T03:11:35;86212.75;;;7.11;75.69
11678;BME280;5895;41.950;24.372;2023-03-26T03:14:03;86216.81;;;7.07;75.75
11678;BME280;5895;41.950;24.372;2023-03-26T03:16:31;86219.94;;;7.09;75.77
11678;BME280;5895;41.950;24.372;2023-03-26T03:18:58;86227.91;;;7.08;75.25
11678;BME280;5895;41.950;24.372;2023-03-26T03:21:28;86221.63;;;7.04;75.67
11678;BME280;5895;41.950;24.372;2023-03-26T03:23:55;86220.03;;;7.03;75.56
11678;BME280;5895;41.950;24.372;2023-03-26T03:26:24;86218.25;;;7.03;75.88
11678;BME280;5895;41.950;24.372;2023-03-26T03:28:55;86222.03;;;7.01;76.36
11678;BME280;5895;41.950;24.372;2023-03-26T03:31:23;86230.00;;;6.99;75.31
11678;BME280;5895;41.950;24.372;2023-03-26T03:33:51;86224.16;;;6.92;75.45
11678;BME280;5895;41.950;24.372;2023-03-26T03:36:20;86224.28;;;6.85;76.64
11678;BME280;5895;41.950;24.372;2023-03-26T03:38:49;86222.66;;;6.84;76.46
11678;BME280;5895;41.950;24.372;2023-03-26T03:41:17;86231.66;;;6.82;76.36
11678;BME280;5895;41.950;24.372;2023-03-26T03:43:44;86238.38;;;6.83;75.75
11678;BME280;5895;41.950;24.372;2023-03-26T03:46:12;86241.97;;;6.82;75.74
11678;BME280;5895;41.950;24.372;2023-03-26T03:48:39;86241.72;;;6.83;76.87
11678;BME280;5895;41.950;24.372;2023-03-26T03:51:12;86239.81;;;6.79;76.51
11678;BME280;5895;41.950;24.372;2023-03-26T03:53:40;86244.97;;;6.79;76.27
11678;BME280;5895;41.950;24.372;2023-03-26T03:56:09;86242.59;;;6.77;76.39
11678;BME280;5895;41.950;24.372;2023-03-26T03:58:36;86235.31;;;6.74;76.56
11678;BME280;5895;41.950;24.372;2023-03-26T04:01:03;86235.53;;;6.73;76.67
11678;BME280;5895;41.950;24.372;2023-03-26T04:03:30;86245.06;;;6.72;76.38
11678;BME280;5895;41.950;24.372;2023-03-26T04:06:04;86223.75;;;6.65;76.19
11678;BME280;5895;41.950;24.372;2023-03-26T04:08:32;86242.00;;;6.63;75.80
11678;BME280;5895;41.950;24.372;2023-03-26T04:11:00;86235.47;;;6.61;76.75
11678;BME280;5895;41.950;24.372;2023-03-26T04:13:29;86236.50;;;6.60;76.65
11678;BME280;5895;41.950;24.372;2023-03-26T04:15:56;86243.09;;;6.56;75.65
11678;BME280;5895;41.950;24.372;2023-03-26T04:18:23;86249.69;;;6.52;76.04
11678;BME280;5895;41.950;24.372;2023-03-26T04:20:52;86249.56;;;6.47;75.40
11678;BME280;5895;41.950;24.372;2023-03-26T04:23:20;86252.13;;;6.47;75.29
11678;BME280;5895;41.950;24.372;2023-03-26T04:25:50;86247.19;;;6.45;76.42
11678;BME280;5895;41.950;24.372;2023-03-26T04:28:26;86243.81;;;6.45;76.17
11678;BME280;5895;41.950;24.372;2023-03-26T04:30:58;86240.69;;;6.43;75.51
11678;BME280;5895;41.950;24.372;2023-03-26T04:33:27;86254.56;;;6.42;74.67
11678;BME280;5895;41.950;24.372;2023-03-26T04:35:55;86262.16;;;6.36;75.57
11678;BME280;5895;41.950;24.372;2023-03-26T04:38:27;86261.47;;;6.29;75.72
11678;BME280;5895;41.950;24.372;2023-03-26T04:40:54;86273.41;;;6.24;76.10
11678;BME280;5895;41.950;24.372;2023-03-26T04:43:24;86262.31;;;6.23;76.10
11678;BME280;5895;41.950;24.372;2023-03-26T04:45:52;86269.47;;;6.21;75.77
11678;BME280;5895;41.950;24.372;2023-03-26T04:48:21;86259.94;;;6.22;75.34
11678;BME280;5895;41.950;24.372;2023-03-26T04:50:49;86269.91;;;6.18;74.95
11678;BME280;5895;41.950;24.372;2023-03-26T04:53:17;86276.63;;;6.19;75.67
11678;BME280;5895;41.950;24.372;2023-03-26T04:55:52;86267.34;;;6.18;75.76
11678;BME280;5895;41.950;24.372;2023-03-26T04:58:21;86268.53;;;6.16;75.19
11678;BME280;5895;41.950;24.372;2023-03-26T05:00:54;86272.69;;;6.17;75.27
11678;BME280;5895;41.950;24.372;2023-03-26T05:03:23;86282.56;;;6.20;75.55
11678;BME280;5895;41.950;24.372;2023-03-26T05:05:56;86282.97;;;6.17;74.88
11678;BME280;5895;41.950;24.372;2023-03-26T05:08:23;86280.63;;;6.15;75.55
11678;BME280;5895;41.950;24.372;2023-03-26T05:10:53;86292.34;;;6.11;75.28
11678;BME280;5895;41.950;24.372;2023-03-26T05:13:21;86291.38;;;6.12;75.19
11678;BME280;5895;41.950;24.372;2023-03-26T05:15:48;86295.28;;;6.15;75.48
11678;BME280;5895;41.950;24.372;2023-03-26T05:18:17;86294.50;;;6.14;75.85
11678;BME280;5895;41.950;24.372;2023-03-26T05:20:46;86290.56;;;6.12;76.11
11678;BME280;5895;41.950;24.372;2023-03-26T05:23:14;86293.34;;;6.10;75.83
11678;BME280;5895;41.950;24.372;2023-03-26T05:25:41;86298.50;;;6.10;75.78
11678;BME280;5895;41.950;24.372;2023-03-26T05:28:09;86304.09;;;6.07;75.84
11678;BME280;5895;41.950;24.372;2023-03-26T05:30:36;86306.09;;;6.05;76.18
11678;BME280;5895;41.950;24.372;2023-03-26T05:33:04;86312.47;;;6.02;75.08
11678;BME280;5895;41.950;24.372;2023-03-26T05:35:31;86318.41;;;6.03;75.74
11678;BME280;5895;41.950;24.372;2023-03-26T05:38:00;86324.13;;;6.05;76.27
11678;BME280;5895;41.950;24.372;2023-03-26T05:40:27;86315.97;;;6.08;75.65
11678;BME280;5895;41.950;24.372;2023-03-26T05:42:55;86321.13;;;6.08;75.90
11678;BME280;5895;41.950;24.372;2023-03-26T05:45:22;86327.00;;;6.15;75.85
11678;BME280;5895;41.950;24.372;2023-03-26T05:47:50;86334.88;;;6.20;76.29
11678;BME280;5895;41.950;24.372;2023-03-26T05:50:19;86337.97;;;6.29;75.56
11678;BME280;5895;41.950;24.372;2023-03-26T05:52:46;86333.44;;;6.43;75.16
11678;BME280;5895;41.950;24.372;2023-03-26T05:55:15;86333.72;;;6.53;75.55
11678;BME280;5895;41.950;24.372;2023-03-26T05:57:44;86337.16;;;6.65;74.48
11678;BME280;5895;41.950;24.372;2023-03-26T06:00:12;86349.75;;;6.73;73.56
11678;BME280;5895;41.950;24.372;2023-03-26T06:02:40;86355.19;;;6.83;74.68
11678;BME280;5895;41.950;24.372;2023-03-26T06:05:08;86358.25;;;6.92;73.30
11678;BME280;5895;41.950;24.372;2023-03-26T06:07:37;86341.28;;;7.03;73.78
11678;BME280;5895;41.950;24.372;2023-03-26T06:10:05;86358.19;;;6.99;72.79
11678;BME280;5895;41.950;24.372;2023-03-26T06:12:34;86356.50;;;7.04;72.85
11678;BME280;5895;41.950;24.372;2023-03-26T06:15:01;86366.59;;;7.06;73.67
11678;BME280;5895;41.950;24.372;2023-03-26T06:17:29;86366.47;;;7.01;74.09
11678;BME280;5895;41.950;24.372;2023-03-26T06:19:56;86374.00;;;7.02;73.02
11678;BME280;5895;41.950;24.372;2023-03-26T06:22:23;86375.81;;;7.02;73.89
11678;BME280;5895;41.950;24.372;2023-03-26T06:24:50;86378.81;;;6.99;74.16
11678;BME280;5895;41.950;24.372;2023-03-26T06:27:18;86372.78;;;7.05;73.75
11678;BME280;5895;41.950;24.372;2023-03-26T06:29:47;86374.47;;;7.11;73.35
11678;BME280;5895;41.950;24.372;2023-03-26T06:32:14;86371.81;;;7.18;73.20
11678;BME280;5895;41.950;24.372;2023-03-26T06:34:42;86376.91;;;7.24;73.64
11678;BME280;5895;41.950;24.372;2023-03-26T06:37:09;86374.66;;;7.28;73.82
11678;BME280;5895;41.950;24.372;2023-03-26T06:39:36;86374.41;;;7.48;72.88
11678;BME280;5895;41.950;24.372;2023-03-26T06:42:04;86371.22;;;7.64;72.31
11678;BME280;5895;41.950;24.372;2023-03-26T06:44:31;86379.50;;;7.66;72.26
11678;BME280;5895;41.950;24.372;2023-03-26T06:47:00;86376.44;;;7.57;73.14
11678;BME280;5895;41.950;24.372;2023-03-26T06:49:27;86372.94;;;7.52;74.55
11678;BME280;5895;41.950;24.372;2023-03-26T06:51:55;86373.16;;;7.80;74.85
11678;BME280;5895;41.950;24.372;2023-03-26T06:54:22;86377.09;;;7.94;71.48
11678;BME280;5895;41.950;24.372;2023-03-26T06:56:49;86373.84;;;7.99;70.66
11678;BME280;5895;41.950;24.372;2023-03-26T06:59:17;86373.38;;;8.02;69.04
11678;BME280;5895;41.950;24.372;2023-03-26T07:01:44;86380.72;;;8.17;69.22
11678;BME280;5895;41.950;24.372;2023-03-26T07:04:13;86386.34;;;8.14;69.70
11678;BME280;5895;41.950;24.372;2023-03-26T07:06:40;86393.53;;;8.12;68.73
11678;BME280;5895;41.950;24.372;2023-03-26T07:09:07;86388.59;;;8.22;68.48
11678;BME280;5895;41.950;24.372;2023-03-26T07:11:35;86392.31;;;8.26;68.95
11678;BME280;5895;41.950;24.372;2023-03-26T07:14:02;86398.69;;;8.35;68.30
11678;BME280;5895;41.950;24.372;2023-03-26T07:16:29;86397.25;;;8.16;67.72
11678;BME280;5895;41.950;24.372;2023-03-26T07:18:57;86395.88;;;8.13;68.70
11678;BME280;5895;41.950;24.372;2023-03-26T07:21:26;86395.09;;;8.13;70.09
11678;BME280;5895;41.950;24.372;2023-03-26T07:23:54;86393.66;;;8.29;70.29
11678;BME280;5895;41.950;24.372;2023-03-26T07:26:26;86388.72;;;8.62;69.43
11678;BME280;5895;41.950;24.372;2023-03-26T07:29:02;86378.59;;;8.84;69.46
11678;BME280;5895;41.950;24.372;2023-03-26T07:31:34;86373.75;;;8.99;67.60
11678;BME280;5895;41.950;24.372;2023-03-26T07:34:08;86362.31;;;9.24;67.74
11678;BME280;5895;41.950;24.372;2023-03-26T07:36:43;86373.59;;;9.46;67.11
11678;BME280;5895;41.950;24.372;2023-03-26T07:39:24;86378.66;;;9.70;67.04
11678;BME280;5895;41.950;24.372;2023-03-26T07:42:00;86364.13;;;9.97;65.88
11678;BME280;5895;41.950;24.372;2023-03-26T07:44:43;86372.94;;;10.13;64.69
11678;BME280;5895;41.950;24.372;2023-03-26T07:47:22;86376.75;;;10.39;65.27
11678;BME280;5895;41.950;24.372;2023-03-26T07:49:52;86384.13;;;10.64;63.76
11678;BME280;5895;41.950;24.372;2023-03-26T07:52:22;86382.72;;;10.56;64.25
11678;BME280;5895;41.950;24.372;2023-03-26T07:54:50;86381.16;;;10.55;63.39
11678;BME280;5895;41.950;24.372;2023-03-26T07:57:29;86379.25;;;10.68;64.62
11678;BME280;5895;41.950;24.372;2023-03-26T08:00:03;86391.94;;;10.86;63.97
11678;BME280;5895;41.950;24.372;2023-03-26T08:02:56;86389.66;;;11.06;64.68
11678;BME280;5895;41.950;24.372;2023-03-26T08:05:31;86395.56;;;11.24;61.96
11678;BME280;5895;41.950;24.372;2023-03-26T08:08:10;86392.94;;;11.41;62.63
11678;BME280;5895;41.950;24.372;2023-03-26T08:10:50;86378.19;;;11.46;61.40
11678;BME280;5895;41.950;24.372;2023-03-26T08:13:27;86384.63;;;11.65;61.91
11678;BME280;5895;41.950;24.372;2023-03-26T08:16:06;86376.00;;;11.82;61.13
11678;BME280;5895;41.950;24.372;2023-03-26T08:18:42;86375.66;;;12.00;60.45
11678;BME280;5895;41.950;24.372;2023-03-26T08:21:15;86373.72;;;12.12;57.98
11678;BME280;5895;41.950;24.372;2023-03-26T08:23:54;86382.06;;;12.14;56.61
11678;BME280;5895;41.950;24.372;2023-03-26T08:26:32;86373.63;;;12.02;58.62
11678;BME280;5895;41.950;24.372;2023-03-26T08:29:09;86370.13;;;12.18;59.46
11678;BME280;5895;41.950;24.372;2023-03-26T08:31:43;86369.19;;;12.30;58.37
11678;BME280;5895;41.950;24.372;2023-03-26T08:34:12;86369.25;;;12.35;58.17
11678;BME280;5895;41.950;24.372;2023-03-26T08:36:40;86373.28;;;12.53;57.53
11678;BME280;5895;41.950;24.372;2023-03-26T08:39:09;86375.28;;;12.78;58.64
11678;BME280;5895;41.950;24.372;2023-03-26T08:41:58;86382.19;;;12.99;56.42
11678;BME280;5895;41.950;24.372;2023-03-26T08:51:03;86376.47;;;13.39;51.26
11678;BME280;5895;41.950;24.372;2023-03-26T08:56:47;86371.09;;;13.66;48.88
11678;BME280;5895;41.950;24.372;2023-03-26T08:59:39;86368.28;;;13.78;47.94
11678;BME280;5895;41.950;24.372;2023-03-26T09:05:29;86380.09;;;14.01;51.29
11678;BME280;5895;41.950;24.372;2023-03-26T09:11:33;86371.53;;;14.36;48.81
11678;BME280;5895;41.950;24.372;2023-03-26T09:20:52;86368.22;;;14.56;48.41
11678;BME280;5895;41.950;24.372;2023-03-26T09:23:53;86357.78;;;14.66;44.80
11678;BME280;5895;41.950;24.372;2023-03-26T09:26:40;86359.34;;;14.67;44.28
11678;BME280;5895;41.950;24.372;2023-03-26T09:29:43;86372.41;;;14.67;44.60
11678;BME280;5895;41.950;24.372;2023-03-26T09:32:36;86368.75;;;14.84;45.38
11678;BME280;5895;41.950;24.372;2023-03-26T09:35:19;86371.38;;;14.99;47.47
11678;BME280;5895;41.950;24.372;2023-03-26T09:37:57;86368.22;;;15.12;49.05
11678;BME280;5895;41.950;24.372;2023-03-26T09:40:34;86365.03;;;15.25;43.07
11678;BME280;5895;41.950;24.372;2023-03-26T09:46:07;86361.16;;;14.92;46.24
11678;BME280;5895;41.950;24.372;2023-03-26T09:49:05;86368.22;;;15.17;45.22
11678;BME280;5895;41.950;24.372;2023-03-26T09:51:48;86364.50;;;15.39;46.57
11678;BME280;5895;41.950;24.372;2023-03-26T09:54:41;86354.25;;;15.68;43.47
11678;BME280;5895;41.950;24.372;2023-03-26T09:57:23;86371.78;;;15.72;45.07
11678;BME280;5895;41.950;24.372;2023-03-26T10:00:06;86362.25;;;16.02;44.41
11678;BME280;5895;41.950;24.372;2023-03-26T10:02:58;86356.97;;;16.12;43.17
11678;BME280;5895;41.950;24.372;2023-03-26T10:05:44;86351.56;;;16.37;44.06
11678;BME280;5895;41.950;24.372;2023-03-26T10:08:38;86350.47;;;16.49;41.47
11678;BME280;5895;41.950;24.372;2023-03-26T10:11:16;86357.19;;;16.60;45.02
11678;BME280;5895;41.950;24.372;2023-03-26T10:13:57;86357.75;;;16.57;40.04
11678;BME280;5895;41.950;24.372;2023-03-26T10:16:33;86346.78;;;16.50;39.83
11678;BME280;5895;41.950;24.372;2023-03-26T10:19:20;86350.00;;;16.42;40.44
11678;BME280;5895;41.950;24.372;2023-03-26T10:21:57;86341.06;;;16.43;44.52
11678;BME280;5895;41.950;24.372;2023-03-26T10:27:31;86340.03;;;15.94;38.71
11678;BME280;5895;41.950;24.372;2023-03-26T10:30:30;86338.75;;;15.86;39.31
11678;BME280;5895;41.950;24.372;2023-03-26T10:33:17;86331.47;;;15.78;39.74
11678;BME280;5895;41.950;24.372;2023-03-26T10:35:58;86333.72;;;16.00;42.81
11678;BME280;5895;41.950;24.372;2023-03-26T10:38:42;86338.13;;;16.54;43.52
11678;BME280;5895;41.950;24.372;2023-03-26T10:41:17;86341.84;;;16.87;44.91
11678;BME280;5895;41.950;24.372;2023-03-26T10:44:06;86328.53;;;17.13;37.88
11678;BME280;5895;41.950;24.372;2023-03-26T10:46:46;86337.84;;;17.29;41.42
11678;BME280;5895;41.950;24.372;2023-03-26T10:49:35;86342.53;;;17.56;40.80
11678;BME280;5895;41.950;24.372;2023-03-26T10:52:11;86339.25;;;17.69;42.00
11678;BME280;5895;41.950;24.372;2023-03-26T10:54:51;86335.97;;;17.59;38.61
11678;BME280;5895;41.950;24.372;2023-03-26T10:57:34;86322.03;;;17.87;38.96
11678;BME280;5895;41.950;24.372;2023-03-26T11:00:16;86318.03;;;17.66;38.93
11678;BME280;5895;41.950;24.372;2023-03-26T11:03:02;86309.38;;;17.65;39.86
11678;BME280;5895;41.950;24.372;2023-03-26T11:05:46;86315.78;;;17.83;40.33
11678;BME280;5895;41.950;24.372;2023-03-26T11:08:22;86313.97;;;18.03;40.81
11678;BME280;5895;41.950;24.372;2023-03-26T11:10:55;86313.34;;;18.11;42.12
11678;BME280;5895;41.950;24.372;2023-03-26T11:13:31;86316.66;;;17.97;42.99
11678;BME280;5895;41.950;24.372;2023-03-26T11:16:07;86302.03;;;17.91;43.58
11678;BME280;5895;41.950;24.372;2023-03-26T11:18:43;86304.97;;;17.61;40.48
11678;BME280;5895;41.950;24.372;2023-03-26T11:21:17;86302.09;;;17.86;43.92
11678;BME280;5895;41.950;24.372;2023-03-26T11:23:58;86304.84;;;18.19;38.29
11678;BME280;5895;41.950;24.372;2023-03-26T11:26:35;86295.00;;;18.48;44.35
11678;BME280;5895;41.950;24.372;2023-03-26T11:29:27;86300.59;;;18.61;40.43
11678;BME280;5895;41.950;24.372;2023-03-26T11:32:02;86297.47;;;18.77;41.81
11678;BME280;5895;41.950;24.372;2023-03-26T11:34:34;86297.75;;;18.95;42.55
11678;BME280;5895;41.950;24.372;2023-03-26T11:37:07;86290.00;;;19.03;39.54
11678;BME280;5895;41.950;24.372;2023-03-26T11:39:44;86289.25;;;19.17;40.97
11678;BME280;5895;41.950;24.372;2023-03-26T11:42:15;86289.41;;;19.07;44.08
11678;BME280;5895;41.950;24.372;2023-03-26T11:44:46;86286.16;;;19.28;42.96
11678;BME280;5895;41.950;24.372;2023-03-26T11:47:20;86291.63;;;19.46;43.05
11678;BME280;5895;41.950;24.372;2023-03-26T11:49:50;86280.31;;;19.64;41.39
11678;BME280;5895;41.950;24.372;2023-03-26T11:52:19;86270.25;;;19.80;44.00
11678;BME280;5895;41.950;24.372;2023-03-26T11:54:48;86274.94;;;19.83;42.51
11678;BME280;5895;41.950;24.372;2023-03-26T11:57:19;86276.50;;;19.84;39.60
11678;BME280;5895;41.950;24.372;2023-03-26T11:59:51;86262.75;;;19.60;41.03
11678;BME280;5895;41.950;24.372;2023-03-26T12:02:26;86266.69;;;19.57;38.11
11678;BME280;5895;41.950;24.372;2023-03-26T12:05:12;86258.75;;;19.76;36.88
11678;BME280;5895;41.950;24.372;2023-03-26T12:07:45;86258.16;;;19.79;34.59
11678;BME280;5895;41.950;24.372;2023-03-26T12:10:32;86264.41;;;19.83;33.81
11678;BME280;5895;41.950;24.372;2023-03-26T12:13:12;86266.84;;;19.93;41.35
11678;BME280;5895;41.950;24.372;2023-03-26T12:15:42;86259.69;;;20.07;42.77
11678;BME280;5895;41.950;24.372;2023-03-26T12:18:23;86265.38;;;20.15;34.09
11678;BME280;5895;41.950;24.372;2023-03-26T12:21:02;86270.03;;;20.31;35.13
11678;BME280;5895;41.950;24.372;2023-03-26T12:23:36;86263.16;;;20.44;35.95
11678;BME280;5895;41.950;24.372;2023-03-26T12:26:13;86264.72;;;20.45;36.73
11678;BME280;5895;41.950;24.372;2023-03-26T12:28:45;86263.34;;;20.62;39.85
11678;BME280;5895;41.950;24.372;2023-03-26T12:31:13;86247.31;;;20.58;41.69
11678;BME280;5895;41.950;24.372;2023-03-26T12:33:44;86257.28;;;20.61;41.56
11678;BME280;5895;41.950;24.372;2023-03-26T12:36:18;86253.50;;;20.76;36.88
11678;BME280;5895;41.950;24.372;2023-03-26T12:38:47;86254.84;;;20.87;41.57
11678;BME280;5895;41.950;24.372;2023-03-26T12:41:18;86264.47;;;20.69;40.03
11678;BME280;5895;41.950;24.372;2023-03-26T12:43:48;86254.47;;;20.80;41.54
11678;BME280;5895;41.950;24.372;2023-03-26T12:46:25;86238.72;;;20.66;34.25
11678;BME280;5895;41.950;24.372;2023-03-26T12:48:53;86232.91;;;20.55;41.29
11678;BME280;5895;41.950;24.372;2023-03-26T12:51:38;86232.28;;;20.08;31.29
11678;BME280;5895;41.950;24.372;2023-03-26T12:54:20;86237.94;;;20.16;35.06
11678;BME280;5895;41.950;24.372;2023-03-26T12:57:07;86230.97;;;20.33;35.08
11678;BME280;5895;41.950;24.372;2023-03-26T12:59:50;86231.94;;;20.51;34.23
11678;BME280;5895;41.950;24.372;2023-03-26T13:05:35;86225.97;;;20.59;35.07
11678;BME280;5895;41.950;24.372;2023-03-26T13:11:26;86213.50;;;20.74;34.80
11678;BME280;5895;41.950;24.372;2023-03-26T13:14:19;86210.97;;;20.69;32.58
11678;BME280;5895;41.950;24.372;2023-03-26T13:16:55;86206.66;;;20.73;41.27
11678;BME280;5895;41.950;24.372;2023-03-26T13:19:27;86202.09;;;20.87;39.62
11678;BME280;5895;41.950;24.372;2023-03-26T13:22:06;86198.97;;;20.85;33.16
11678;BME280;5895;41.950;24.372;2023-03-26T13:24:42;86199.59;;;20.82;35.03
11678;BME280;5895;41.950;24.372;2023-03-26T13:27:40;86197.66;;;20.74;33.29
11678;BME280;5895;41.950;24.372;2023-03-26T13:30:21;86198.28;;;20.71;32.64
11678;BME280;5895;41.950;24.372;2023-03-26T13:35:44;86196.34;;;20.85;37.24
11678;BME280;5895;41.950;24.372;2023-03-26T13:38:18;86191.91;;;20.94;37.71
11678;BME280;5895;41.950;24.372;2023-03-26T13:40:58;86191.06;;;20.85;35.49
11678;BME280;5895;41.950;24.372;2023-03-26T13:43:38;86199.72;;;20.77;33.32
11678;BME280;5895;41.950;24.372;2023-03-26T13:46:17;86194.91;;;20.79;33.31
11678;BME280;5895;41.950;24.372;2023-03-26T13:48:50;86206.53;;;20.42;39.02
11678;BME280;5895;41.950;24.372;2023-03-26T13:51:23;86204.59;;;20.47;37.21
11678;BME280;5895;41.950;24.372;2023-03-26T13:53:54;86202.81;;;20.56;38.07
11678;BME280;5895;41.950;24.372;2023-03-26T13:56:28;86202.63;;;20.53;37.11
11678;BME280;5895;41.950;24.372;2023-03-26T13:59:00;86199.22;;;20.52;37.05
11678;BME280;5895;41.950;24.372;2023-03-26T14:01:31;86198.63;;;20.55;38.03
11678;BME280;5895;41.950;24.372;2023-03-26T14:04:06;86192.59;;;20.41;35.38
11678;BME280;5895;41.950;24.372;2023-03-26T14:06:43;86193.56;;;20.45;33.99
11678;BME280;5895;41.950;24.372;2023-03-26T14:09:21;86195.28;;;20.27;37.53
11678;BME280;5895;41.950;24.372;2023-03-26T14:12:00;86192.66;;;20.14;32.61
11678;BME280;5895;41.950;24.372;2023-03-26T14:14:37;86194.94;;;20.06;34.67
11678;BME280;5895;41.950;24.372;2023-03-26T14:17:15;86191.06;;;19.90;36.22
11678;BME280;5895;41.950;24.372;2023-03-26T14:20:22;86188.63;;;19.80;32.63